sensor_id;sensor_type;location;lat;lon;timestamp;pressure;altitude;pressure_sealevel;temperature;humidity
74708;BME280;63360;50.104;8.074;2023-03-30T00:01:03;96664.47;;;9.69;86.55
74708;BME280;63360;50.104;8.074;2023-03-30T00:03:30;96664.31;;;9.74;86.99
74708;BME280;63360;50.104;8.074;2023-03-30T00:06:02;96651.81;;;9.67;87.12
74708;BME280;63360;50.104;8.074;2023-03-30T00:08:30;96652.59;;;9.59;87.60
74708;BME280;63360;50.104;8.074;2023-03-30T00:11:16;96656.09;;;9.63;87.01
74708;BME280;63360;50.104;8.074;2023-03-30T00:13:43;96646.81;;;9.54;87.50
74708;BME280;63360;50.104;8.074;2023-03-30T00:16:12;96641.78;;;9.57;86.51
74708;BME280;63360;50.104;8.074;2023-03-30T00:18:39;96643.88;;;9.64;86.71
74708;BME280;63360;50.104;8.074;2023-03-30T00:21:07;96628.28;;;9.64;85.70
74708;BME280;63360;50.104;8.074;2023-03-30T00:23:35;96642.06;;;9.64;85.83
74708;BME280;63360;50.104;8.074;2023-03-30T00:26:02;96627.50;;;9.72;85.40
74708;BME280;63360;50.104;8.074;2023-03-30T00:28:29;96628.28;;;9.64;87.10
74708;BME280;63360;50.104;8.074;2023-03-30T00:30:56;96626.81;;;9.54;87.35
74708;BME280;63360;50.104;8.074;2023-03-30T00:33:23;96631.38;;;9.57;87.14
74708;BME280;63360;50.104;8.074;2023-03-30T00:36:09;96623.00;;;9.52;86.74
74708;BME280;63360;50.104;8.074;2023-03-30T00:38:35;96623.50;;;9.37;87.74
74708;BME280;63360;50.104;8.074;2023-03-30T00:41:02;96626.84;;;9.46;87.15
74708;BME280;63360;50.104;8.074;2023-03-30T00:43:29;96622.13;;;9.39;86.99
74708;BME280;63360;50.104;8.074;2023-03-30T00:45:56;96619.53;;;9.39;87.21
74708;BME280;63360;50.104;8.074;2023-03-30T00:48:31;96611.44;;;9.32;86.50
74708;BME280;63360;50.104;8.074;2023-03-30T00:51:06;96607.66;;;9.21;87.80
74708;BME280;63360;50.104;8.074;2023-03-30T00:53:40;96609.28;;;9.43;86.00
74708;BME280;63360;50.104;8.074;2023-03-30T00:56:10;96596.81;;;9.19;86.58
74708;BME280;63360;50.104;8.074;2023-03-30T00:58:40;96620.75;;;9.33;86.94
74708;BME280;63360;50.104;8.074;2023-03-30T01:01:09;96599.75;;;9.18;86.48
74708;BME280;63360;50.104;8.074;2023-03-30T01:03:44;96621.38;;;9.39;86.27
74708;BME280;63360;50.104;8.074;2023-03-30T01:06:11;96621.38;;;9.22;87.24
74708;BME280;63360;50.104;8.074;2023-03-30T01:08:39;96614.81;;;9.24;86.73
74708;BME280;63360;50.104;8.074;2023-03-30T01:11:07;96626.13;;;9.28;87.06
74708;BME280;63360;50.104;8.074;2023-03-30T01:13:40;96634.81;;;9.32;86.96
74708;BME280;63360;50.104;8.074;2023-03-30T01:16:27;96640.00;;;9.32;87.50
74708;BME280;63360;50.104;8.074;2023-03-30T01:19:11;96645.63;;;9.43;86.95
74708;BME280;63360;50.104;8.074;2023-03-30T01:30:30;96622.34;;;9.63;86.09
74708;BME280;63360;50.104;8.074;2023-03-30T01:35:59;96651.50;;;9.69;87.76
74708;BME280;63360;50.104;8.074;2023-03-30T01:38:40;96640.19;;;9.73;86.24
74708;BME280;63360;50.104;8.074;2023-03-30T01:41:17;96643.94;;;9.85;85.56
74708;BME280;63360;50.104;8.074;2023-03-30T01:44:03;96631.94;;;10.39;80.09
74708;BME280;63360;50.104;8.074;2023-03-30T01:46:37;96635.75;;;10.82;77.42
74708;BME280;63360;50.104;8.074;2023-03-30T01:49:14;96624.78;;;11.42;74.41
74708;BME280;63360;50.104;8.074;2023-03-30T01:51:56;96637.44;;;11.77;73.47
74708;BME280;63360;50.104;8.074;2023-03-30T01:54:40;96624.78;;;11.99;72.43
74708;BME280;63360;50.104;8.074;2023-03-30T01:57:14;96618.13;;;12.14;71.50
74708;BME280;63360;50.104;8.074;2023-03-30T02:00:04;96635.59;;;12.38;71.16
74708;BME280;63360;50.104;8.074;2023-03-30T02:02:43;96634.47;;;12.51;69.14
74708;BME280;63360;50.104;8.074;2023-03-30T02:05:15;96647.53;;;12.51;69.88
74708;BME280;63360;50.104;8.074;2023-03-30T02:07:48;96645.31;;;12.77;67.79
74708;BME280;63360;50.104;8.074;2023-03-30T02:10:18;96643.38;;;12.62;69.03
74708;BME280;63360;50.104;8.074;2023-03-30T02:12:47;96644.56;;;12.64;69.07
74708;BME280;63360;50.104;8.074;2023-03-30T02:15:14;96624.03;;;12.63;66.90
74708;BME280;63360;50.104;8.074;2023-03-30T02:17:42;96632.56;;;12.75;67.77
74708;BME280;63360;50.104;8.074;2023-03-30T02:20:11;96623.25;;;12.74;67.85
74708;BME280;63360;50.104;8.074;2023-03-30T02:22:38;96630.59;;;12.85;67.32
74708;BME280;63360;50.104;8.074;2023-03-30T02:25:05;96620.28;;;12.76;67.55
74708;BME280;63360;50.104;8.074;2023-03-30T02:27:31;96636.06;;;13.07;66.23
74708;BME280;63360;50.104;8.074;2023-03-30T02:29:59;96608.91;;;12.96;66.29
74708;BME280;63360;50.104;8.074;2023-03-30T02:32:28;96605.03;;;12.90;66.38
74708;BME280;63360;50.104;8.074;2023-03-30T02:35:22;96606.97;;;12.93;65.67
74708;BME280;63360;50.104;8.074;2023-03-30T02:40:30;96601.94;;;13.00;67.23
74708;BME280;63360;50.104;8.074;2023-03-30T02:45:50;96619.63;;;12.79;67.47
74708;BME280;63360;50.104;8.074;2023-03-30T02:59:15;96634.56;;;12.66;68.87
74708;BME280;63360;50.104;8.074;2023-03-30T03:01:54;96645.66;;;12.63;69.41
74708;BME280;63360;50.104;8.074;2023-03-30T03:04:24;96640.75;;;12.62;69.91
74708;BME280;63360;50.104;8.074;2023-03-30T03:06:54;96650.91;;;12.51;69.27
74708;BME280;63360;50.104;8.074;2023-03-30T03:09:21;96644.03;;;12.59;69.73
74708;BME280;63360;50.104;8.074;2023-03-30T03:11:51;96646.03;;;12.50;70.33
74708;BME280;63360;50.104;8.074;2023-03-30T03:14:18;96647.94;;;12.65;69.79
74708;BME280;63360;50.104;8.074;2023-03-30T03:16:44;96637.78;;;12.75;69.78
74708;BME280;63360;50.104;8.074;2023-03-30T03:19:10;96616.91;;;12.75;69.86
74708;BME280;63360;50.104;8.074;2023-03-30T03:21:37;96592.44;;;12.80;70.36
74708;BME280;63360;50.104;8.074;2023-03-30T03:24:04;96559.38;;;12.84;70.60
74708;BME280;63360;50.104;8.074;2023-03-30T03:26:31;96548.16;;;12.84;71.20
74708;BME280;63360;50.104;8.074;2023-03-30T03:28:59;96511.63;;;12.84;71.62
74708;BME280;63360;50.104;8.074;2023-03-30T03:31:25;96505.44;;;12.60;74.21
74708;BME280;63360;50.104;8.074;2023-03-30T03:33:52;96477.88;;;12.47;77.43
74708;BME280;63360;50.104;8.074;2023-03-30T03:36:18;96495.75;;;12.33;77.60
74708;BME280;63360;50.104;8.074;2023-03-30T03:38:45;96491.25;;;12.18;80.79
74708;BME280;63360;50.104;8.074;2023-03-30T03:41:12;96501.06;;;11.97;81.22
74708;BME280;63360;50.104;8.074;2023-03-30T03:43:38;96489.28;;;11.75;82.62
74708;BME280;63360;50.104;8.074;2023-03-30T03:46:05;96506.84;;;11.66;83.19
74708;BME280;63360;50.104;8.074;2023-03-30T03:48:32;96513.25;;;11.69;83.96
74708;BME280;63360;50.104;8.074;2023-03-30T03:50:58;96514.56;;;11.63;84.00
74708;BME280;63360;50.104;8.074;2023-03-30T03:53:25;96515.75;;;11.65;84.07
74708;BME280;63360;50.104;8.074;2023-03-30T03:55:53;96515.84;;;11.44;86.64
74708;BME280;63360;50.104;8.074;2023-03-30T03:58:20;96517.69;;;11.32;88.33
74708;BME280;63360;50.104;8.074;2023-03-30T04:00:47;96501.41;;;11.23;89.58
74708;BME280;63360;50.104;8.074;2023-03-30T04:03:14;96513.69;;;11.46;87.91
74708;BME280;63360;50.104;8.074;2023-03-30T04:05:40;96527.03;;;11.45;88.28
74708;BME280;63360;50.104;8.074;2023-03-30T04:08:08;96526.13;;;11.29;88.79
74708;BME280;63360;50.104;8.074;2023-03-30T04:10:38;96525.59;;;11.11;90.46
74708;BME280;63360;50.104;8.074;2023-03-30T04:13:05;96541.28;;;11.03;91.50
74708;BME280;63360;50.104;8.074;2023-03-30T04:15:32;96542.03;;;10.91;92.01
74708;BME280;63360;50.104;8.074;2023-03-30T04:17:58;96509.34;;;10.81;93.71
74708;BME280;63360;50.104;8.074;2023-03-30T04:20:26;96505.00;;;10.73;94.65
74708;BME280;63360;50.104;8.074;2023-03-30T04:22:53;96499.03;;;10.73;94.36
74708;BME280;63360;50.104;8.074;2023-03-30T04:25:21;96501.31;;;10.74;94.22
74708;BME280;63360;50.104;8.074;2023-03-30T04:27:51;96509.22;;;10.66;95.41
74708;BME280;63360;50.104;8.074;2023-03-30T04:30:19;96509.63;;;10.68;96.28
74708;BME280;63360;50.104;8.074;2023-03-30T04:32:47;96484.44;;;10.48;97.15
74708;BME280;63360;50.104;8.074;2023-03-30T04:35:31;96495.16;;;10.46;96.99
74708;BME280;63360;50.104;8.074;2023-03-30T04:37:58;96491.84;;;10.58;95.90
74708;BME280;63360;50.104;8.074;2023-03-30T04:40:25;96490.91;;;10.42;97.25
74708;BME280;63360;50.104;8.074;2023-03-30T04:42:52;96480.59;;;10.33;98.06
74708;BME280;63360;50.104;8.074;2023-03-30T04:45:19;96480.47;;;10.29;97.80
74708;BME280;63360;50.104;8.074;2023-03-30T04:47:46;96474.72;;;10.24;98.00
74708;BME280;63360;50.104;8.074;2023-03-30T04:50:13;96478.81;;;10.25;98.52
74708;BME280;63360;50.104;8.074;2023-03-30T04:52:39;96476.03;;;10.30;97.87
74708;BME280;63360;50.104;8.074;2023-03-30T04:55:06;96461.91;;;10.19;99.23
74708;BME280;63360;50.104;8.074;2023-03-30T04:57:33;96480.22;;;10.22;98.34
74708;BME280;63360;50.104;8.074;2023-03-30T05:00:00;96447.06;;;10.19;95.07
74708;BME280;63360;50.104;8.074;2023-03-30T05:02:27;96461.69;;;10.45;90.88
74708;BME280;63360;50.104;8.074;2023-03-30T05:04:53;96474.69;;;10.77;87.76
74708;BME280;63360;50.104;8.074;2023-03-30T05:07:19;96471.66;;;10.87;87.55
74708;BME280;63360;50.104;8.074;2023-03-30T05:09:46;96462.00;;;11.00;87.77
74708;BME280;63360;50.104;8.074;2023-03-30T05:12:14;96460.06;;;10.97;87.68
74708;BME280;63360;50.104;8.074;2023-03-30T05:14:41;96456.94;;;11.04;87.91
74708;BME280;63360;50.104;8.074;2023-03-30T05:17:08;96469.50;;;11.14;88.97
74708;BME280;63360;50.104;8.074;2023-03-30T05:19:34;96463.34;;;11.06;89.39
74708;BME280;63360;50.104;8.074;2023-03-30T05:22:01;96461.25;;;11.00;90.67
74708;BME280;63360;50.104;8.074;2023-03-30T05:24:28;96454.22;;;10.88;91.53
74708;BME280;63360;50.104;8.074;2023-03-30T05:26:54;96467.22;;;10.88;91.74
74708;BME280;63360;50.104;8.074;2023-03-30T05:29:21;96475.22;;;10.83;91.13
74708;BME280;63360;50.104;8.074;2023-03-30T05:31:47;96479.88;;;10.89;90.68
74708;BME280;63360;50.104;8.074;2023-03-30T05:34:14;96480.22;;;11.00;90.25
74708;BME280;63360;50.104;8.074;2023-03-30T05:36:41;96482.53;;;11.02;89.46
74708;BME280;63360;50.104;8.074;2023-03-30T05:39:07;96465.81;;;10.90;91.92
74708;BME280;63360;50.104;8.074;2023-03-30T05:41:34;96459.84;;;10.90;91.32
74708;BME280;63360;50.104;8.074;2023-03-30T05:44:00;96428.22;;;11.12;90.08
74708;BME280;63360;50.104;8.074;2023-03-30T05:46:27;96466.25;;;11.05;90.51
74708;BME280;63360;50.104;8.074;2023-03-30T05:48:53;96489.78;;;11.08;91.01
74708;BME280;63360;50.104;8.074;2023-03-30T05:51:20;96485.22;;;11.05;91.11
74708;BME280;63360;50.104;8.074;2023-03-30T05:53:46;96493.16;;;11.21;90.28
74708;BME280;63360;50.104;8.074;2023-03-30T05:56:13;96482.31;;;11.19;90.53
74708;BME280;63360;50.104;8.074;2023-03-30T05:58:39;96482.31;;;11.19;91.20
74708;BME280;63360;50.104;8.074;2023-03-30T06:01:06;96491.09;;;11.26;91.16
74708;BME280;63360;50.104;8.074;2023-03-30T06:03:32;96487.97;;;11.33;91.41
74708;BME280;63360;50.104;8.074;2023-03-30T06:05:59;96508.47;;;11.22;92.29
74708;BME280;63360;50.104;8.074;2023-03-30T06:08:26;96524.84;;;11.23;92.55
74708;BME280;63360;50.104;8.074;2023-03-30T06:10:54;96522.59;;;11.33;92.64
74708;BME280;63360;50.104;8.074;2023-03-30T06:13:21;96495.88;;;11.24;93.35
74708;BME280;63360;50.104;8.074;2023-03-30T06:15:47;96481.66;;;11.22;94.57
74708;BME280;63360;50.104;8.074;2023-03-30T06:18:14;96509.41;;;11.18;94.93
74708;BME280;63360;50.104;8.074;2023-03-30T06:20:41;96535.69;;;11.25;95.20
74708;BME280;63360;50.104;8.074;2023-03-30T06:23:07;96550.53;;;11.12;97.41
74708;BME280;63360;50.104;8.074;2023-03-30T06:25:34;96539.78;;;11.02;98.89
74708;BME280;63360;50.104;8.074;2023-03-30T06:28:02;96534.56;;;11.02;99.24
74708;BME280;63360;50.104;8.074;2023-03-30T06:30:28;96515.13;;;10.99;99.58
74708;BME280;63360;50.104;8.074;2023-03-30T06:32:55;96508.06;;;10.87;100.00
74708;BME280;63360;50.104;8.074;2023-03-30T06:35:21;96507.03;;;11.01;100.00
74708;BME280;63360;50.104;8.074;2023-03-30T06:37:48;96471.09;;;10.94;100.00
74708;BME280;63360;50.104;8.074;2023-03-30T06:40:15;96447.69;;;10.94;100.00
74708;BME280;63360;50.104;8.074;2023-03-30T06:42:42;96462.00;;;11.00;100.00
74708;BME280;63360;50.104;8.074;2023-03-30T06:45:10;96446.94;;;10.93;100.00
74708;BME280;63360;50.104;8.074;2023-03-30T06:47:36;96452.16;;;10.93;100.00
74708;BME280;63360;50.104;8.074;2023-03-30T06:50:03;96474.94;;;11.09;97.87
74708;BME280;63360;50.104;8.074;2023-03-30T06:52:33;96473.31;;;11.04;99.05
74708;BME280;63360;50.104;8.074;2023-03-30T06:55:00;96469.19;;;11.03;99.40
74708;BME280;63360;50.104;8.074;2023-03-30T06:57:26;96481.84;;;11.05;100.00
74708;BME280;63360;50.104;8.074;2023-03-30T06:59:53;96499.25;;;11.25;98.37
74708;BME280;63360;50.104;8.074;2023-03-30T07:02:19;96499.78;;;11.30;97.67
74708;BME280;63360;50.104;8.074;2023-03-30T07:04:46;96494.69;;;11.34;97.39
74708;BME280;63360;50.104;8.074;2023-03-30T07:07:12;96495.53;;;11.26;97.84
74708;BME280;63360;50.104;8.074;2023-03-30T07:09:39;96496.97;;;11.35;97.20
74708;BME280;63360;50.104;8.074;2023-03-30T07:12:05;96489.03;;;11.32;97.82
74708;BME280;63360;50.104;8.074;2023-03-30T07:14:32;96478.41;;;11.25;98.17
74708;BME280;63360;50.104;8.074;2023-03-30T07:16:58;96462.81;;;11.25;98.15
74708;BME280;63360;50.104;8.074;2023-03-30T07:19:25;96486.22;;;11.37;97.76
74708;BME280;63360;50.104;8.074;2023-03-30T07:21:51;96504.78;;;11.47;97.05
74708;BME280;63360;50.104;8.074;2023-03-30T07:24:18;96488.50;;;11.50;96.87
74708;BME280;63360;50.104;8.074;2023-03-30T07:26:44;96491.34;;;11.57;96.14
74708;BME280;63360;50.104;8.074;2023-03-30T07:29:10;96481.97;;;11.44;97.02
74708;BME280;63360;50.104;8.074;2023-03-30T07:31:37;96470.59;;;11.49;96.67
74708;BME280;63360;50.104;8.074;2023-03-30T07:34:03;96482.63;;;11.66;96.44
74708;BME280;63360;50.104;8.074;2023-03-30T07:36:30;96476.91;;;11.72;97.38
74708;BME280;63360;50.104;8.074;2023-03-30T07:38:56;96449.72;;;11.97;94.80
74708;BME280;63360;50.104;8.074;2023-03-30T07:41:23;96469.75;;;12.09;93.68
74708;BME280;63360;50.104;8.074;2023-03-30T07:43:50;96489.22;;;11.99;94.10
74708;BME280;63360;50.104;8.074;2023-03-30T07:46:16;96472.59;;;12.04;94.14
74708;BME280;63360;50.104;8.074;2023-03-30T07:48:43;96472.28;;;12.05;95.26
74708;BME280;63360;50.104;8.074;2023-03-30T07:51:11;96496.59;;;12.09;94.88
74708;BME280;63360;50.104;8.074;2023-03-30T07:53:38;96510.16;;;12.15;93.71
74708;BME280;63360;50.104;8.074;2023-03-30T07:56:05;96506.38;;;12.12;93.08
74708;BME280;63360;50.104;8.074;2023-03-30T07:58:32;96514.06;;;12.21;92.09
74708;BME280;63360;50.104;8.074;2023-03-30T08:00:59;96528.19;;;12.20;92.09
74708;BME280;63360;50.104;8.074;2023-03-30T08:03:29;96528.94;;;12.21;92.04
74708;BME280;63360;50.104;8.074;2023-03-30T08:06:02;96514.94;;;12.13;91.21
74708;BME280;63360;50.104;8.074;2023-03-30T08:08:31;96521.34;;;12.03;92.46
74708;BME280;63360;50.104;8.074;2023-03-30T08:10:58;96520.81;;;12.10;90.81
74708;BME280;63360;50.104;8.074;2023-03-30T08:13:25;96527.44;;;12.07;91.89
74708;BME280;63360;50.104;8.074;2023-03-30T08:15:52;96521.47;;;12.07;92.26
74708;BME280;63360;50.104;8.074;2023-03-30T08:18:20;96513.66;;;12.07;92.09
74708;BME280;63360;50.104;8.074;2023-03-30T08:20:49;96512.47;;;12.04;92.77
74708;BME280;63360;50.104;8.074;2023-03-30T08:23:17;96533.31;;;12.04;92.76
74708;BME280;63360;50.104;8.074;2023-03-30T08:25:44;96522.53;;;12.06;92.43
74708;BME280;63360;50.104;8.074;2023-03-30T08:28:12;96530.66;;;12.29;92.21
74708;BME280;63360;50.104;8.074;2023-03-30T08:30:38;96522.19;;;12.32;91.39
74708;BME280;63360;50.104;8.074;2023-03-30T08:33:05;96529.28;;;12.47;90.10
74708;BME280;63360;50.104;8.074;2023-03-30T08:35:34;96531.19;;;12.62;89.79
74708;BME280;63360;50.104;8.074;2023-03-30T08:38:00;96527.31;;;12.56;90.67
74708;BME280;63360;50.104;8.074;2023-03-30T08:40:27;96512.78;;;12.70;89.26
74708;BME280;63360;50.104;8.074;2023-03-30T08:45:53;96513.38;;;13.07;84.38
74708;BME280;63360;50.104;8.074;2023-03-30T08:48:22;96508.84;;;13.20;83.80
74708;BME280;63360;50.104;8.074;2023-03-30T08:50:56;96519.28;;;13.35;82.70
74708;BME280;63360;50.104;8.074;2023-03-30T08:53:27;96530.00;;;13.30;83.57
74708;BME280;63360;50.104;8.074;2023-03-30T08:56:12;96531.31;;;13.24;83.36
74708;BME280;63360;50.104;8.074;2023-03-30T09:01:44;96527.34;;;13.15;82.87
74708;BME280;63360;50.104;8.074;2023-03-30T09:07:36;96511.75;;;13.03;85.43
74708;BME280;63360;50.104;8.074;2023-03-30T09:10:12;96510.28;;;12.90;80.95
74708;BME280;63360;50.104;8.074;2023-03-30T09:12:46;96519.16;;;13.01;79.02
74708;BME280;63360;50.104;8.074;2023-03-30T09:15:19;96510.03;;;12.95;79.43
74708;BME280;63360;50.104;8.074;2023-03-30T09:20:20;96531.50;;;12.88;83.32
74708;BME280;63360;50.104;8.074;2023-03-30T09:22:48;96527.81;;;12.89;79.89
74708;BME280;63360;50.104;8.074;2023-03-30T09:25:25;96527.38;;;12.87;79.47
74708;BME280;63360;50.104;8.074;2023-03-30T09:28:05;96544.25;;;13.05;77.60
74708;BME280;63360;50.104;8.074;2023-03-30T09:30:40;96532.16;;;13.13;76.08
74708;BME280;63360;50.104;8.074;2023-03-30T09:33:35;96528.78;;;13.28;75.61
74708;BME280;63360;50.104;8.074;2023-03-30T09:36:12;96522.72;;;13.40;75.49
74708;BME280;63360;50.104;8.074;2023-03-30T09:38:40;96525.19;;;13.48;75.85
74708;BME280;63360;50.104;8.074;2023-03-30T09:43:55;96537.81;;;13.62;73.70
74708;BME280;63360;50.104;8.074;2023-03-30T09:46:23;96537.41;;;13.60;73.92
74708;BME280;63360;50.104;8.074;2023-03-30T09:48:49;96538.06;;;13.72;71.58
74708;BME280;63360;50.104;8.074;2023-03-30T09:51:20;96550.28;;;13.53;72.08
74708;BME280;63360;50.104;8.074;2023-03-30T09:53:49;96532.41;;;13.39;73.32
74708;BME280;63360;50.104;8.074;2023-03-30T09:58:50;96538.81;;;13.26;73.61
74708;BME280;63360;50.104;8.074;2023-03-30T10:01:18;96538.41;;;13.24;72.72
74708;BME280;63360;50.104;8.074;2023-03-30T10:04:05;96543.78;;;13.31;73.31
74708;BME280;63360;50.104;8.074;2023-03-30T10:06:37;96547.34;;;13.39;72.89
74708;BME280;63360;50.104;8.074;2023-03-30T10:09:07;96545.91;;;13.57;72.53
74708;BME280;63360;50.104;8.074;2023-03-30T10:11:43;96540.91;;;13.83;72.78
74708;BME280;63360;50.104;8.074;2023-03-30T10:14:33;96533.84;;;14.03;71.95
74708;BME280;63360;50.104;8.074;2023-03-30T10:17:02;96545.88;;;14.23;71.74
74708;BME280;63360;50.104;8.074;2023-03-30T10:19:32;96525.53;;;14.51;69.69
74708;BME280;63360;50.104;8.074;2023-03-30T10:22:14;96538.19;;;14.49;68.04
74708;BME280;63360;50.104;8.074;2023-03-30T10:24:53;96529.78;;;14.40;68.71
74708;BME280;63360;50.104;8.074;2023-03-30T10:27:26;96547.91;;;14.48;65.35
74708;BME280;63360;50.104;8.074;2023-03-30T10:30:08;96542.88;;;14.40;62.40
74708;BME280;63360;50.104;8.074;2023-03-30T10:32:34;96524.81;;;14.16;65.10
74708;BME280;63360;50.104;8.074;2023-03-30T10:35:07;96527.47;;;14.19;64.05
74708;BME280;63360;50.104;8.074;2023-03-30T10:37:41;96538.63;;;14.16;62.96
74708;BME280;63360;50.104;8.074;2023-03-30T10:40:26;96525.25;;;14.21;62.47
74708;BME280;63360;50.104;8.074;2023-03-30T10:42:58;96536.94;;;14.08;64.37
74708;BME280;63360;50.104;8.074;2023-03-30T10:45:36;96541.09;;;14.09;62.64
74708;BME280;63360;50.104;8.074;2023-03-30T10:54:17;96546.38;;;13.93;62.23
74708;BME280;63360;50.104;8.074;2023-03-30T10:56:53;96532.88;;;13.76;62.45
74708;BME280;63360;50.104;8.074;2023-03-30T10:59:38;96542.91;;;13.89;63.26
74708;BME280;63360;50.104;8.074;2023-03-30T11:02:23;96542.13;;;14.05;62.77
74708;BME280;63360;50.104;8.074;2023-03-30T11:05:15;96527.16;;;14.21;62.69
74708;BME280;63360;50.104;8.074;2023-03-30T11:10:29;96516.22;;;14.53;59.44
74708;BME280;63360;50.104;8.074;2023-03-30T11:13:01;96518.31;;;14.64;58.69
74708;BME280;63360;50.104;8.074;2023-03-30T11:15:32;96528.31;;;14.81;58.24
74708;BME280;63360;50.104;8.074;2023-03-30T11:18:07;96519.50;;;14.70;56.66
74708;BME280;63360;50.104;8.074;2023-03-30T11:20:41;96536.81;;;14.74;56.04
74708;BME280;63360;50.104;8.074;2023-03-30T11:23:19;96529.78;;;14.78;55.73
74708;BME280;63360;50.104;8.074;2023-03-30T11:25:54;96515.94;;;14.58;57.07
74708;BME280;63360;50.104;8.074;2023-03-30T11:28:37;96530.91;;;14.58;57.87
74708;BME280;63360;50.104;8.074;2023-03-30T11:31:26;96536.34;;;14.49;58.92
74708;BME280;63360;50.104;8.074;2023-03-30T11:34:03;96539.44;;;14.36;58.99
74708;BME280;63360;50.104;8.074;2023-03-30T11:36:41;96523.56;;;14.10;61.49
74708;BME280;63360;50.104;8.074;2023-03-30T11:39:13;96555.91;;;13.86;65.07
74708;BME280;63360;50.104;8.074;2023-03-30T11:42:13;96553.56;;;13.50;69.65
74708;BME280;63360;50.104;8.074;2023-03-30T11:44:41;96550.88;;;13.30;70.87
74708;BME280;63360;50.104;8.074;2023-03-30T11:55:46;96510.19;;;13.29;69.33
74708;BME280;63360;50.104;8.074;2023-03-30T12:01:27;96513.22;;;13.82;64.35
74708;BME280;63360;50.104;8.074;2023-03-30T12:04:14;96515.66;;;14.25;63.72
74708;BME280;63360;50.104;8.074;2023-03-30T12:06:56;96504.56;;;14.32;61.40
74708;BME280;63360;50.104;8.074;2023-03-30T12:09:52;96516.50;;;14.48;60.87
74708;BME280;63360;50.104;8.074;2023-03-30T12:15:08;96519.59;;;14.54;61.10
74708;BME280;63360;50.104;8.074;2023-03-30T12:17:48;96508.53;;;14.41;59.79
74708;BME280;63360;50.104;8.074;2023-03-30T12:23:21;96535.38;;;14.38;60.63
74708;BME280;63360;50.104;8.074;2023-03-30T12:28:25;96570.53;;;14.06;61.49
74708;BME280;63360;50.104;8.074;2023-03-30T12:31:12;96623.16;;;13.26;71.47
74708;BME280;63360;50.104;8.074;2023-03-30T12:33:50;96627.59;;;12.06;83.95
74708;BME280;63360;50.104;8.074;2023-03-30T12:36:30;96571.06;;;11.50;89.56
74708;BME280;63360;50.104;8.074;2023-03-30T12:39:00;96554.84;;;11.08;95.90
74708;BME280;63360;50.104;8.074;2023-03-30T12:41:38;96562.06;;;10.90;96.78
74708;BME280;63360;50.104;8.074;2023-03-30T12:46:54;96550.97;;;10.81;100.00
74708;BME280;63360;50.104;8.074;2023-03-30T12:49:36;96538.41;;;10.83;100.00
74708;BME280;63360;50.104;8.074;2023-03-30T12:52:14;96528.25;;;10.90;100.00
74708;BME280;63360;50.104;8.074;2023-03-30T12:58:09;96524.47;;;11.00;100.00
74708;BME280;63360;50.104;8.074;2023-03-30T13:03:28;96528.69;;;10.92;100.00
74708;BME280;63360;50.104;8.074;2023-03-30T13:06:00;96537.13;;;10.89;100.00
74708;BME280;63360;50.104;8.074;2023-03-30T13:11:17;96545.09;;;11.05;100.00
74708;BME280;63360;50.104;8.074;2023-03-30T13:13:53;96528.94;;;11.24;100.00
74708;BME280;63360;50.104;8.074;2023-03-30T13:29:40;96531.31;;;12.26;100.00
74708;BME280;63360;50.104;8.074;2023-03-30T13:41:21;96540.22;;;12.80;86.45
74708;BME280;63360;50.104;8.074;2023-03-30T13:49:21;96534.97;;;12.37;85.84
74708;BME280;63360;50.104;8.074;2023-03-30T13:51:51;96546.66;;;12.15;89.60
74708;BME280;63360;50.104;8.074;2023-03-30T13:54:25;96591.31;;;12.01;89.37
74708;BME280;63360;50.104;8.074;2023-03-30T13:57:10;96590.19;;;11.54;91.63
74708;BME280;63360;50.104;8.074;2023-03-30T13:59:41;96605.97;;;11.25;94.39
74708;BME280;63360;50.104;8.074;2023-03-30T14:02:14;96616.69;;;11.11;97.31
74708;BME280;63360;50.104;8.074;2023-03-30T14:04:42;96604.84;;;10.81;99.98
74708;BME280;63360;50.104;8.074;2023-03-30T14:07:16;96607.78;;;10.79;100.00
74708;BME280;63360;50.104;8.074;2023-03-30T14:10:00;96606.41;;;10.61;100.00
74708;BME280;63360;50.104;8.074;2023-03-30T14:12:27;96604.09;;;10.60;100.00
74708;BME280;63360;50.104;8.074;2023-03-30T14:14:53;96601.06;;;10.58;100.00
74708;BME280;63360;50.104;8.074;2023-03-30T14:17:22;96605.06;;;10.55;100.00
74708;BME280;63360;50.104;8.074;2023-03-30T14:20:19;96619.22;;;10.66;100.00
74708;BME280;63360;50.104;8.074;2023-03-30T14:22:50;96589.22;;;10.48;100.00
74708;BME280;63360;50.104;8.074;2023-03-30T14:25:24;96608.22;;;10.61;100.00
74708;BME280;63360;50.104;8.074;2023-03-30T14:27:51;96608.81;;;10.66;100.00
74708;BME280;63360;50.104;8.074;2023-03-30T14:30:19;96608.19;;;10.69;100.00
74708;BME280;63360;50.104;8.074;2023-03-30T14:32:46;96585.25;;;10.63;100.00
74708;BME280;63360;50.104;8.074;2023-03-30T14:35:16;96591.81;;;10.69;100.00
74708;BME280;63360;50.104;8.074;2023-03-30T14:37:43;96589.41;;;10.64;100.00
74708;BME280;63360;50.104;8.074;2023-03-30T14:40:17;96589.81;;;10.86;100.00
74708;BME280;63360;50.104;8.074;2023-03-30T14:42:44;96582.31;;;10.85;100.00
74708;BME280;63360;50.104;8.074;2023-03-30T14:45:15;96580.09;;;10.95;100.00
74708;BME280;63360;50.104;8.074;2023-03-30T14:47:43;96579.59;;;11.14;98.06
74708;BME280;63360;50.104;8.074;2023-03-30T14:50:13;96586.56;;;11.22;96.50
74708;BME280;63360;50.104;8.074;2023-03-30T14:52:44;96586.78;;;11.17;97.75
74708;BME280;63360;50.104;8.074;2023-03-30T14:55:17;96580.25;;;11.11;100.00
74708;BME280;63360;50.104;8.074;2023-03-30T14:57:45;96581.22;;;11.19;98.07
74708;BME280;63360;50.104;8.074;2023-03-30T15:00:15;96599.28;;;11.48;95.51
74708;BME280;63360;50.104;8.074;2023-03-30T15:02:52;96603.94;;;11.42;95.83
74708;BME280;63360;50.104;8.074;2023-03-30T15:05:23;96596.69;;;11.48;93.84
74708;BME280;63360;50.104;8.074;2023-03-30T15:07:51;96585.97;;;11.49;95.15
74708;BME280;63360;50.104;8.074;2023-03-30T15:10:21;96596.25;;;11.58;92.75
74708;BME280;63360;50.104;8.074;2023-03-30T15:12:48;96594.13;;;11.60;93.50